Phoenix, Arizona
Traffic Map
Current Weather Conditions
Phoenix, Arizona
Broken Clouds
Broken Clouds
80°
Feels Like: 80°
Wind Chill: 80° Ceiling: 24000
Heat Index: 80° Visibility: 10mi
Dew Point: 40° Wind: 6mph
Humidity: 24% Direction: 100° (E)
Pressure: 29.91in Gusts: 0mph
Raw Report DataKPHX 271551Z 10005KT 10SM SCT200 BKN240 27/04 A2991 RMK AO2 SLP111 T02670044
Traffic Incident Summary
Active as of:
Severity:
Category:
InformationThere was an issue retrieving the traffic information for this location. Please try a different location or try again shortly.
Advertisements
Track Severe Weather on mobile